sensor_id;sensor_type;location;lat;lon;timestamp;pressure;altitude;pressure_sealevel;temperature;humidity
53715;BME280;39608;55.630;37.864;2023-02-24T00:00:47;99173.66;;;-7.10;53.84
53715;BME280;39608;55.630;37.864;2023-02-24T00:05:52;99168.53;;;-7.18;54.41
53715;BME280;39608;55.630;37.864;2023-02-24T00:10:55;99160.81;;;-7.19;54.02
53715;BME280;39608;55.630;37.864;2023-02-24T00:15:59;99157.19;;;-7.18;54.08
53715;BME280;39608;55.630;37.864;2023-02-24T00:21:04;99151.09;;;-7.19;53.83
53715;BME280;39608;55.630;37.864;2023-02-24T00:26:11;99149.69;;;-7.15;54.38
53715;BME280;39608;55.630;37.864;2023-02-24T00:31:15;99144.06;;;-7.12;54.34
53715;BME280;39608;55.630;37.864;2023-02-24T00:36:20;99123.78;;;-7.11;54.31
53715;BME280;39608;55.630;37.864;2023-02-24T00:41:26;99126.50;;;-7.05;53.84
53715;BME280;39608;55.630;37.864;2023-02-24T00:46:29;99113.72;;;-7.01;54.12
53715;BME280;39608;55.630;37.864;2023-02-24T00:51:34;99104.56;;;-7.05;53.74
53715;BME280;39608;55.630;37.864;2023-02-24T00:56:38;99106.88;;;-6.95;53.73
53715;BME280;39608;55.630;37.864;2023-02-24T01:01:40;99102.25;;;-6.93;54.00
53715;BME280;39608;55.630;37.864;2023-02-24T01:06:45;99092.91;;;-6.96;53.40
53715;BME280;39608;55.630;37.864;2023-02-24T01:11:49;99084.56;;;-6.99;53.71
53715;BME280;39608;55.630;37.864;2023-02-24T01:17:17;99065.50;;;-7.01;53.56
53715;BME280;39608;55.630;37.864;2023-02-24T01:22:20;99071.22;;;-6.98;53.47
53715;BME280;39608;55.630;37.864;2023-02-24T01:27:24;99066.13;;;-6.99;53.58
53715;BME280;39608;55.630;37.864;2023-02-24T01:32:26;99053.31;;;-7.02;53.90
53715;BME280;39608;55.630;37.864;2023-02-24T01:37:31;99047.63;;;-7.06;53.90
53715;BME280;39608;55.630;37.864;2023-02-24T01:42:34;99034.59;;;-7.14;53.98
53715;BME280;39608;55.630;37.864;2023-02-24T01:47:38;99040.66;;;-7.14;53.72
53715;BME280;39608;55.630;37.864;2023-02-24T01:52:43;99019.41;;;-7.12;53.42
53715;BME280;39608;55.630;37.864;2023-02-24T01:57:49;99014.31;;;-7.14;53.68
53715;BME280;39608;55.630;37.864;2023-02-24T02:02:53;99009.88;;;-7.13;53.81
53715;BME280;39608;55.630;37.864;2023-02-24T02:08:00;99006.41;;;-7.14;53.46
53715;BME280;39608;55.630;37.864;2023-02-24T02:13:05;98992.44;;;-7.14;53.12
53715;BME280;39608;55.630;37.864;2023-02-24T02:18:33;98989.59;;;-7.13;53.60
53715;BME280;39608;55.630;37.864;2023-02-24T02:23:55;98986.97;;;-7.13;53.03
53715;BME280;39608;55.630;37.864;2023-02-24T02:29:16;98978.00;;;-7.18;53.00
53715;BME280;39608;55.630;37.864;2023-02-24T02:34:30;98968.47;;;-7.19;53.08
53715;BME280;39608;55.630;37.864;2023-02-24T02:39:43;98955.44;;;-7.28;53.33
53715;BME280;39608;55.630;37.864;2023-02-24T02:44:52;98946.75;;;-7.28;53.27
53715;BME280;39608;55.630;37.864;2023-02-24T02:50:04;98916.13;;;-7.29;53.13
53715;BME280;39608;55.630;37.864;2023-02-24T02:55:11;98907.81;;;-7.33;53.15
53715;BME280;39608;55.630;37.864;2023-02-24T03:00:17;98905.00;;;-7.31;53.31
53715;BME280;39608;55.630;37.864;2023-02-24T03:05:29;98891.97;;;-7.40;53.06
53715;BME280;39608;55.630;37.864;2023-02-24T03:10:32;98881.84;;;-7.43;53.30
53715;BME280;39608;55.630;37.864;2023-02-24T03:15:35;98862.00;;;-7.38;53.26
53715;BME280;39608;55.630;37.864;2023-02-24T03:20:44;98833.53;;;-7.57;53.16
53715;BME280;39608;55.630;37.864;2023-02-24T03:25:53;98856.91;;;-7.40;53.13
53715;BME280;39608;55.630;37.864;2023-02-24T03:31:01;98843.72;;;-7.47;52.96
53715;BME280;39608;55.630;37.864;2023-02-24T03:36:06;98844.09;;;-7.50;53.24
53715;BME280;39608;55.630;37.864;2023-02-24T03:41:09;98810.22;;;-7.60;53.31
53715;BME280;39608;55.630;37.864;2023-02-24T03:46:13;98811.03;;;-7.59;53.48
53715;BME280;39608;55.630;37.864;2023-02-24T03:51:19;98798.69;;;-7.59;53.32
53715;BME280;39608;55.630;37.864;2023-02-24T03:56:27;98787.34;;;-7.59;53.62
53715;BME280;39608;55.630;37.864;2023-02-24T04:01:46;98758.19;;;-7.58;53.29
53715;BME280;39608;55.630;37.864;2023-02-24T04:06:55;98762.84;;;-7.53;53.22
53715;BME280;39608;55.630;37.864;2023-02-24T04:12:06;98760.22;;;-7.53;53.51
53715;BME280;39608;55.630;37.864;2023-02-24T04:17:14;98749.09;;;-7.55;53.45
53715;BME280;39608;55.630;37.864;2023-02-24T04:22:21;98745.63;;;-7.56;53.22
53715;BME280;39608;55.630;37.864;2023-02-24T04:27:26;98722.72;;;-7.62;53.29
53715;BME280;39608;55.630;37.864;2023-02-24T04:32:29;98725.19;;;-7.53;53.47
53715;BME280;39608;55.630;37.864;2023-02-24T04:37:33;98724.59;;;-7.49;53.71
53715;BME280;39608;55.630;37.864;2023-02-24T04:42:36;98733.13;;;-7.47;53.57
53715;BME280;39608;55.630;37.864;2023-02-24T04:47:46;98734.56;;;-7.37;53.28
53715;BME280;39608;55.630;37.864;2023-02-24T04:52:54;98707.59;;;-7.46;53.29
53715;BME280;39608;55.630;37.864;2023-02-24T04:57:56;98717.94;;;-7.38;53.39
53715;BME280;39608;55.630;37.864;2023-02-24T05:02:59;98708.22;;;-7.37;53.35
53715;BME280;39608;55.630;37.864;2023-02-24T05:08:05;98691.00;;;-7.33;53.46
53715;BME280;39608;55.630;37.864;2023-02-24T05:13:10;98695.88;;;-7.30;53.40
53715;BME280;39608;55.630;37.864;2023-02-24T05:18:14;98687.38;;;-7.26;53.45
53715;BME280;39608;55.630;37.864;2023-02-24T05:23:18;98686.34;;;-7.25;53.24
53715;BME280;39608;55.630;37.864;2023-02-24T05:28:21;98661.84;;;-7.25;53.50
53715;BME280;39608;55.630;37.864;2023-02-24T05:33:23;98649.91;;;-7.21;53.43
53715;BME280;39608;55.630;37.864;2023-02-24T05:38:27;98645.84;;;-7.17;53.25
53715;BME280;39608;55.630;37.864;2023-02-24T05:43:29;98633.50;;;-7.03;53.20
53715;BME280;39608;55.630;37.864;2023-02-24T05:48:31;98628.41;;;-6.91;53.20
53715;BME280;39608;55.630;37.864;2023-02-24T05:53:36;98621.13;;;-6.89;53.34
53715;BME280;39608;55.630;37.864;2023-02-24T05:58:40;98626.81;;;-6.79;53.38
53715;BME280;39608;55.630;37.864;2023-02-24T06:03:45;98608.34;;;-6.79;53.11
53715;BME280;39608;55.630;37.864;2023-02-24T06:08:49;98607.13;;;-6.69;53.45
53715;BME280;39608;55.630;37.864;2023-02-24T06:13:51;98599.00;;;-6.61;53.26
53715;BME280;39608;55.630;37.864;2023-02-24T06:18:57;98585.38;;;-6.51;53.63
53715;BME280;39608;55.630;37.864;2023-02-24T06:24:00;98568.94;;;-6.47;53.40
53715;BME280;39608;55.630;37.864;2023-02-24T06:29:02;98577.63;;;-6.40;53.12
53715;BME280;39608;55.630;37.864;2023-02-24T06:34:05;98573.78;;;-6.37;53.71
53715;BME280;39608;55.630;37.864;2023-02-24T06:39:08;98572.94;;;-6.31;53.56
53715;BME280;39608;55.630;37.864;2023-02-24T06:44:13;98565.41;;;-6.27;53.89
53715;BME280;39608;55.630;37.864;2023-02-24T06:49:15;98553.63;;;-6.18;54.08
53715;BME280;39608;55.630;37.864;2023-02-24T06:54:19;98555.81;;;-6.08;54.07
53715;BME280;39608;55.630;37.864;2023-02-24T06:59:21;98549.31;;;-6.06;53.96
53715;BME280;39608;55.630;37.864;2023-02-24T07:04:28;98517.28;;;-6.16;54.69
53715;BME280;39608;55.630;37.864;2023-02-24T07:09:32;98524.50;;;-6.05;55.19
53715;BME280;39608;55.630;37.864;2023-02-24T07:14:35;98522.66;;;-5.97;55.51
53715;BME280;39608;55.630;37.864;2023-02-24T07:19:37;98519.34;;;-5.93;55.20
53715;BME280;39608;55.630;37.864;2023-02-24T07:24:40;98507.56;;;-5.90;55.69
53715;BME280;39608;55.630;37.864;2023-02-24T07:29:49;98492.97;;;-5.93;55.85
53715;BME280;39608;55.630;37.864;2023-02-24T07:34:53;98496.41;;;-5.92;56.45
53715;BME280;39608;55.630;37.864;2023-02-24T07:39:56;98485.97;;;-5.80;56.94
53715;BME280;39608;55.630;37.864;2023-02-24T07:44:58;98482.91;;;-5.77;57.07
53715;BME280;39608;55.630;37.864;2023-02-24T07:50:00;98473.50;;;-5.67;57.42
53715;BME280;39608;55.630;37.864;2023-02-24T07:55:10;98472.94;;;-5.50;57.15
53715;BME280;39608;55.630;37.864;2023-02-24T08:00:15;98466.31;;;-5.59;57.68
53715;BME280;39608;55.630;37.864;2023-02-24T08:05:27;98467.50;;;-5.55;57.68
53715;BME280;39608;55.630;37.864;2023-02-24T08:10:31;98445.94;;;-5.52;57.73
53715;BME280;39608;55.630;37.864;2023-02-24T08:15:36;98442.69;;;-5.54;57.96
53715;BME280;39608;55.630;37.864;2023-02-24T08:20:38;98440.22;;;-5.49;58.25
53715;BME280;39608;55.630;37.864;2023-02-24T08:25:53;98431.56;;;-5.38;58.28
53715;BME280;39608;55.630;37.864;2023-02-24T08:30:55;98432.75;;;-5.34;58.57
53715;BME280;39608;55.630;37.864;2023-02-24T08:35:57;98423.31;;;-5.23;58.35
53715;BME280;39608;55.630;37.864;2023-02-24T08:41:03;98415.38;;;-5.23;58.57
53715;BME280;39608;55.630;37.864;2023-02-24T08:46:13;98419.88;;;-5.05;58.89
53715;BME280;39608;55.630;37.864;2023-02-24T08:51:19;98417.66;;;-4.89;58.72
53715;BME280;39608;55.630;37.864;2023-02-24T08:56:25;98389.09;;;-4.99;58.81
53715;BME280;39608;55.630;37.864;2023-02-24T09:01:30;98417.38;;;-4.81;59.07
53715;BME280;39608;55.630;37.864;2023-02-24T09:06:37;98404.78;;;-4.86;58.95
53715;BME280;39608;55.630;37.864;2023-02-24T09:11:41;98413.03;;;-4.75;58.99
53715;BME280;39608;55.630;37.864;2023-02-24T09:16:45;98401.53;;;-4.69;59.36
53715;BME280;39608;55.630;37.864;2023-02-24T09:22:02;98397.91;;;-4.56;59.23
53715;BME280;39608;55.630;37.864;2023-02-24T09:27:15;98400.97;;;-4.41;59.42
53715;BME280;39608;55.630;37.864;2023-02-24T09:32:17;98386.63;;;-4.33;59.45
53715;BME280;39608;55.630;37.864;2023-02-24T09:37:19;98369.16;;;-4.22;59.52
53715;BME280;39608;55.630;37.864;2023-02-24T09:42:29;98367.31;;;-4.10;59.31
53715;BME280;39608;55.630;37.864;2023-02-24T09:47:46;98341.53;;;-4.15;59.64
53715;BME280;39608;55.630;37.864;2023-02-24T09:52:58;98354.91;;;-3.98;59.71
53715;BME280;39608;55.630;37.864;2023-02-24T09:58:19;98347.56;;;-3.96;59.62
53715;BME280;39608;55.630;37.864;2023-02-24T10:03:30;98331.56;;;-3.89;59.74
53715;BME280;39608;55.630;37.864;2023-02-24T10:08:53;98328.66;;;-3.75;59.90
53715;BME280;39608;55.630;37.864;2023-02-24T10:14:02;98321.66;;;-3.70;60.03
53715;BME280;39608;55.630;37.864;2023-02-24T10:19:13;98307.84;;;-3.72;59.98
53715;BME280;39608;55.630;37.864;2023-02-24T10:24:22;98292.28;;;-3.80;60.24
53715;BME280;39608;55.630;37.864;2023-02-24T10:29:40;98297.44;;;-3.50;60.65
53715;BME280;39608;55.630;37.864;2023-02-24T10:34:46;98289.69;;;-3.39;60.30
53715;BME280;39608;55.630;37.864;2023-02-24T10:39:49;98275.97;;;-3.36;60.16
53715;BME280;39608;55.630;37.864;2023-02-24T10:45:05;98261.56;;;-3.29;60.59
53715;BME280;39608;55.630;37.864;2023-02-24T10:50:22;98261.59;;;-3.12;60.06
53715;BME280;39608;55.630;37.864;2023-02-24T10:55:25;98248.13;;;-3.22;59.98
53715;BME280;39608;55.630;37.864;2023-02-24T11:00:43;98257.34;;;-3.13;60.41
53715;BME280;39608;55.630;37.864;2023-02-24T11:06:20;98237.78;;;-3.23;60.39
53715;BME280;39608;55.630;37.864;2023-02-24T11:11:41;98260.09;;;-3.07;60.65
53715;BME280;39608;55.630;37.864;2023-02-24T11:16:59;98244.75;;;-3.05;60.79
53715;BME280;39608;55.630;37.864;2023-02-24T11:22:20;98248.22;;;-3.05;60.78
53715;BME280;39608;55.630;37.864;2023-02-24T11:27:28;98234.78;;;-2.98;60.79
53715;BME280;39608;55.630;37.864;2023-02-24T11:32:42;98228.31;;;-2.90;60.23
53715;BME280;39608;55.630;37.864;2023-02-24T11:37:58;98229.56;;;-2.93;60.98
53715;BME280;39608;55.630;37.864;2023-02-24T11:43:05;98200.31;;;-2.98;60.75
53715;BME280;39608;55.630;37.864;2023-02-24T11:48:17;98215.19;;;-2.80;60.36
53715;BME280;39608;55.630;37.864;2023-02-24T11:53:24;98210.38;;;-2.66;60.01
53715;BME280;39608;55.630;37.864;2023-02-24T11:58:33;98192.47;;;-2.76;60.20
53715;BME280;39608;55.630;37.864;2023-02-24T12:03:43;98189.56;;;-2.75;60.60
53715;BME280;39608;55.630;37.864;2023-02-24T12:08:53;98195.75;;;-2.69;60.69
53715;BME280;39608;55.630;37.864;2023-02-24T12:14:03;98194.22;;;-2.65;60.73
53715;BME280;39608;55.630;37.864;2023-02-24T12:19:14;98189.31;;;-2.73;60.35
53715;BME280;39608;55.630;37.864;2023-02-24T12:24:19;98190.69;;;-2.70;60.69
53715;BME280;39608;55.630;37.864;2023-02-24T12:29:37;98185.47;;;-2.65;61.04
53715;BME280;39608;55.630;37.864;2023-02-24T12:34:53;98193.34;;;-2.70;60.80
53715;BME280;39608;55.630;37.864;2023-02-24T12:40:04;98161.34;;;-2.81;61.13
53715;BME280;39608;55.630;37.864;2023-02-24T12:45:19;98166.97;;;-2.77;61.01
53715;BME280;39608;55.630;37.864;2023-02-24T12:50:36;98170.34;;;-2.82;60.50
53715;BME280;39608;55.630;37.864;2023-02-24T12:55:46;98172.13;;;-2.87;61.35
53715;BME280;39608;55.630;37.864;2023-02-24T13:01:03;98151.94;;;-2.88;60.91
53715;BME280;39608;55.630;37.864;2023-02-24T13:06:27;98155.16;;;-2.86;61.14
53715;BME280;39608;55.630;37.864;2023-02-24T13:11:41;98154.56;;;-2.88;61.48
53715;BME280;39608;55.630;37.864;2023-02-24T13:16:46;98137.28;;;-2.91;61.71
53715;BME280;39608;55.630;37.864;2023-02-24T13:22:02;98136.34;;;-2.85;61.46
53715;BME280;39608;55.630;37.864;2023-02-24T13:27:20;98143.81;;;-2.82;61.24
53715;BME280;39608;55.630;37.864;2023-02-24T13:32:31;98107.47;;;-2.98;61.32
53715;BME280;39608;55.630;37.864;2023-02-24T13:37:36;98125.16;;;-2.87;61.24
53715;BME280;39608;55.630;37.864;2023-02-24T13:42:39;98107.66;;;-2.88;61.18
53715;BME280;39608;55.630;37.864;2023-02-24T13:48:18;98129.34;;;-2.74;61.48
53715;BME280;39608;55.630;37.864;2023-02-24T13:53:37;98120.03;;;-2.77;61.41
53715;BME280;39608;55.630;37.864;2023-02-24T13:59:17;98121.00;;;-2.66;61.51
53715;BME280;39608;55.630;37.864;2023-02-24T14:04:26;98099.28;;;-2.80;61.18
53715;BME280;39608;55.630;37.864;2023-02-24T14:09:32;98120.25;;;-2.61;61.59
53715;BME280;39608;55.630;37.864;2023-02-24T14:14:35;98103.22;;;-2.65;61.15
53715;BME280;39608;55.630;37.864;2023-02-24T14:19:38;98111.97;;;-2.65;61.64
53715;BME280;39608;55.630;37.864;2023-02-24T14:24:41;98114.13;;;-2.62;61.69
53715;BME280;39608;55.630;37.864;2023-02-24T14:29:43;98108.03;;;-2.62;61.54
53715;BME280;39608;55.630;37.864;2023-02-24T14:34:46;98093.34;;;-2.70;61.59
53715;BME280;39608;55.630;37.864;2023-02-24T14:39:51;98099.28;;;-2.63;61.91
53715;BME280;39608;55.630;37.864;2023-02-24T14:44:56;98105.63;;;-2.64;62.24
53715;BME280;39608;55.630;37.864;2023-02-24T14:49:59;98107.22;;;-2.63;61.64
53715;BME280;39608;55.630;37.864;2023-02-24T14:55:09;98095.78;;;-2.63;61.75
53715;BME280;39608;55.630;37.864;2023-02-24T15:00:18;98093.88;;;-2.68;62.16
53715;BME280;39608;55.630;37.864;2023-02-24T15:05:23;98099.50;;;-2.64;62.40
53715;BME280;39608;55.630;37.864;2023-02-24T15:10:28;98100.56;;;-2.65;62.66
53715;BME280;39608;55.630;37.864;2023-02-24T15:15:34;98103.13;;;-2.70;62.38
53715;BME280;39608;55.630;37.864;2023-02-24T15:20:38;98092.75;;;-2.72;62.51
53715;BME280;39608;55.630;37.864;2023-02-24T15:25:44;98104.75;;;-2.69;63.24
53715;BME280;39608;55.630;37.864;2023-02-24T15:30:57;98104.75;;;-2.69;63.64
53715;BME280;39608;55.630;37.864;2023-02-24T15:36:05;98087.81;;;-2.85;63.46
53715;BME280;39608;55.630;37.864;2023-02-24T15:41:09;98103.53;;;-2.79;63.76
53715;BME280;39608;55.630;37.864;2023-02-24T15:46:18;98098.94;;;-2.66;61.52
53715;BME280;39608;55.630;37.864;2023-02-24T15:51:30;98095.66;;;-2.73;63.14
53715;BME280;39608;55.630;37.864;2023-02-24T15:56:34;98099.84;;;-2.78;63.71
53715;BME280;39608;55.630;37.864;2023-02-24T16:01:37;98098.72;;;-2.82;63.97
53715;BME280;39608;55.630;37.864;2023-02-24T16:06:40;98080.88;;;-2.86;63.96
53715;BME280;39608;55.630;37.864;2023-02-24T16:11:55;98088.19;;;-2.77;63.91
53715;BME280;39608;55.630;37.864;2023-02-24T16:16:57;98082.81;;;-2.82;64.05
53715;BME280;39608;55.630;37.864;2023-02-24T16:22:01;98084.16;;;-2.79;64.19
53715;BME280;39608;55.630;37.864;2023-02-24T16:27:06;98067.75;;;-2.76;64.40
53715;BME280;39608;55.630;37.864;2023-02-24T16:32:10;98066.63;;;-2.80;64.46
53715;BME280;39608;55.630;37.864;2023-02-24T16:37:16;98063.72;;;-2.79;64.51
53715;BME280;39608;55.630;37.864;2023-02-24T16:42:23;98053.94;;;-2.78;64.27
53715;BME280;39608;55.630;37.864;2023-02-24T16:47:25;98047.03;;;-2.79;64.54
53715;BME280;39608;55.630;37.864;2023-02-24T16:52:27;98054.50;;;-2.76;64.56
53715;BME280;39608;55.630;37.864;2023-02-24T16:57:30;98046.03;;;-2.73;64.35
53715;BME280;39608;55.630;37.864;2023-02-24T17:02:32;98034.38;;;-2.72;64.75
53715;BME280;39608;55.630;37.864;2023-02-24T17:07:34;98026.44;;;-2.72;65.07
53715;BME280;39608;55.630;37.864;2023-02-24T17:12:40;98021.13;;;-2.72;64.80
53715;BME280;39608;55.630;37.864;2023-02-24T17:17:44;98022.16;;;-2.73;65.42
53715;BME280;39608;55.630;37.864;2023-02-24T17:22:47;98008.59;;;-2.77;65.43
53715;BME280;39608;55.630;37.864;2023-02-24T17:27:50;98011.63;;;-2.68;65.23
53715;BME280;39608;55.630;37.864;2023-02-24T17:32:52;98004.41;;;-2.72;65.01
53715;BME280;39608;55.630;37.864;2023-02-24T17:37:55;98006.25;;;-2.73;65.20
53715;BME280;39608;55.630;37.864;2023-02-24T17:42:58;97990.81;;;-2.76;65.82
53715;BME280;39608;55.630;37.864;2023-02-24T17:48:00;97996.44;;;-2.72;65.00
53715;BME280;39608;55.630;37.864;2023-02-24T17:53:02;97980.19;;;-2.76;65.08
53715;BME280;39608;55.630;37.864;2023-02-24T17:58:06;97988.78;;;-2.69;65.57
53715;BME280;39608;55.630;37.864;2023-02-24T18:03:08;97978.41;;;-2.70;65.66
53715;BME280;39608;55.630;37.864;2023-02-24T18:08:10;97976.59;;;-2.70;65.85
53715;BME280;39608;55.630;37.864;2023-02-24T18:13:13;97961.28;;;-2.63;65.80
53715;BME280;39608;55.630;37.864;2023-02-24T18:18:15;97967.13;;;-2.61;66.07
53715;BME280;39608;55.630;37.864;2023-02-24T18:23:18;97960.78;;;-2.60;66.17
53715;BME280;39608;55.630;37.864;2023-02-24T18:28:21;97954.97;;;-2.56;65.72
53715;BME280;39608;55.630;37.864;2023-02-24T18:33:23;97943.31;;;-2.55;66.13
53715;BME280;39608;55.630;37.864;2023-02-24T18:38:27;97947.56;;;-2.54;66.26
53715;BME280;39608;55.630;37.864;2023-02-24T18:43:31;97938.06;;;-2.50;66.38
53715;BME280;39608;55.630;37.864;2023-02-24T18:48:33;97925.25;;;-2.59;66.21
53715;BME280;39608;55.630;37.864;2023-02-24T18:53:36;97914.41;;;-2.52;66.53
53715;BME280;39608;55.630;37.864;2023-02-24T18:58:39;97920.59;;;-2.46;66.82
53715;BME280;39608;55.630;37.864;2023-02-24T19:03:42;97905.22;;;-2.44;66.88
53715;BME280;39608;55.630;37.864;2023-02-24T19:08:45;97898.59;;;-2.42;66.88
53715;BME280;39608;55.630;37.864;2023-02-24T19:13:48;97885.09;;;-2.40;66.26
53715;BME280;39608;55.630;37.864;2023-02-24T19:18:52;97868.03;;;-2.44;66.62
53715;BME280;39608;55.630;37.864;2023-02-24T19:23:58;97876.91;;;-2.33;66.54
53715;BME280;39608;55.630;37.864;2023-02-24T19:29:02;97876.91;;;-2.33;67.10
53715;BME280;39608;55.630;37.864;2023-02-24T19:34:06;97859.91;;;-2.32;67.17
53715;BME280;39608;55.630;37.864;2023-02-24T19:39:11;97873.25;;;-2.27;66.85
53715;BME280;39608;55.630;37.864;2023-02-24T19:44:15;97858.69;;;-2.25;66.80
53715;BME280;39608;55.630;37.864;2023-02-24T19:49:19;97865.63;;;-2.18;66.64
53715;BME280;39608;55.630;37.864;2023-02-24T19:54:22;97861.38;;;-2.19;66.61
53715;BME280;39608;55.630;37.864;2023-02-24T19:59:25;97855.31;;;-2.15;67.13
53715;BME280;39608;55.630;37.864;2023-02-24T20:04:28;97846.50;;;-2.20;66.75
53715;BME280;39608;55.630;37.864;2023-02-24T20:09:30;97848.38;;;-2.16;67.01
53715;BME280;39608;55.630;37.864;2023-02-24T20:14:33;97851.88;;;-2.10;67.43
53715;BME280;39608;55.630;37.864;2023-02-24T20:19:35;97845.53;;;-2.09;66.87
53715;BME280;39608;55.630;37.864;2023-02-24T20:24:37;97844.50;;;-2.03;67.39
53715;BME280;39608;55.630;37.864;2023-02-24T20:29:41;97845.59;;;-1.99;67.37
53715;BME280;39608;55.630;37.864;2023-02-24T20:34:43;97825.41;;;-2.00;67.10
53715;BME280;39608;55.630;37.864;2023-02-24T20:39:45;97823.81;;;-2.01;67.31
53715;BME280;39608;55.630;37.864;2023-02-24T20:44:51;97804.97;;;-1.99;66.86
53715;BME280;39608;55.630;37.864;2023-02-24T20:49:53;97811.09;;;-1.94;67.06
53715;BME280;39608;55.630;37.864;2023-02-24T20:54:55;97811.09;;;-1.94;67.54
53715;BME280;39608;55.630;37.864;2023-02-24T20:59:58;97807.97;;;-1.85;67.36
53715;BME280;39608;55.630;37.864;2023-02-24T21:05:08;97807.47;;;-1.82;67.40
53715;BME280;39608;55.630;37.864;2023-02-24T21:10:11;97788.28;;;-1.90;67.41
53715;BME280;39608;55.630;37.864;2023-02-24T21:15:15;97802.97;;;-1.77;67.43
53715;BME280;39608;55.630;37.864;2023-02-24T21:20:17;97796.34;;;-1.74;67.69
53715;BME280;39608;55.630;37.864;2023-02-24T21:25:19;97804.63;;;-1.70;67.56
53715;BME280;39608;55.630;37.864;2023-02-24T21:30:22;97794.25;;;-1.67;67.91
53715;BME280;39608;55.630;37.864;2023-02-24T21:35:24;97792.94;;;-1.64;67.73
53715;BME280;39608;55.630;37.864;2023-02-24T21:40:26;97788.41;;;-1.64;67.77
53715;BME280;39608;55.630;37.864;2023-02-24T21:45:30;97783.09;;;-1.64;67.38
53715;BME280;39608;55.630;37.864;2023-02-24T21:50:32;97779.38;;;-1.68;67.39
53715;BME280;39608;55.630;37.864;2023-02-24T21:55:34;97775.13;;;-1.69;68.01
53715;BME280;39608;55.630;37.864;2023-02-24T22:00:39;97782.06;;;-1.63;67.66
53715;BME280;39608;55.630;37.864;2023-02-24T22:05:46;97758.94;;;-1.67;68.30
53715;BME280;39608;55.630;37.864;2023-02-24T22:10:56;97769.31;;;-1.56;67.65
53715;BME280;39608;55.630;37.864;2023-02-24T22:15:59;97767.50;;;-1.55;67.95
53715;BME280;39608;55.630;37.864;2023-02-24T22:21:05;97762.69;;;-1.53;67.88
53715;BME280;39608;55.630;37.864;2023-02-24T22:26:09;97756.03;;;-1.56;67.56
53715;BME280;39608;55.630;37.864;2023-02-24T22:31:15;97745.16;;;-1.54;67.56
53715;BME280;39608;55.630;37.864;2023-02-24T22:36:19;97730.50;;;-1.62;67.99
53715;BME280;39608;55.630;37.864;2023-02-24T22:41:23;97735.06;;;-1.52;68.28
53715;BME280;39608;55.630;37.864;2023-02-24T22:46:28;97734.81;;;-1.50;67.94
53715;BME280;39608;55.630;37.864;2023-02-24T22:51:30;97735.84;;;-1.51;67.53
53715;BME280;39608;55.630;37.864;2023-02-24T22:56:33;97731.63;;;-1.52;67.66
53715;BME280;39608;55.630;37.864;2023-02-24T23:01:37;97726.31;;;-1.47;67.86
53715;BME280;39608;55.630;37.864;2023-02-24T23:06:39;97717.00;;;-1.50;67.92
53715;BME280;39608;55.630;37.864;2023-02-24T23:11:41;97713.84;;;-1.47;67.94
53715;BME280;39608;55.630;37.864;2023-02-24T23:16:45;97701.84;;;-1.49;68.28
53715;BME280;39608;55.630;37.864;2023-02-24T23:21:52;97701.84;;;-1.49;68.07
53715;BME280;39608;55.630;37.864;2023-02-24T23:26:55;97702.63;;;-1.49;68.34
53715;BME280;39608;55.630;37.864;2023-02-24T23:31:59;97692.78;;;-1.48;68.32
53715;BME280;39608;55.630;37.864;2023-02-24T23:37:01;97678.19;;;-1.51;68.61
53715;BME280;39608;55.630;37.864;2023-02-24T23:42:03;97679.78;;;-1.45;68.43
53715;BME280;39608;55.630;37.864;2023-02-24T23:47:09;97676.88;;;-1.43;68.00
53715;BME280;39608;55.630;37.864;2023-02-24T23:52:11;97674.47;;;-1.45;68.21
53715;BME280;39608;55.630;37.864;2023-02-24T23:57:13;97667.28;;;-1.44;67.96
